Hosford, Florida
Current Conditions -  °F | °C
As of 8:35 PM on Monday 24 Nov 2014 (Local Time) from K2J9 Reporting Station
Broken Clouds Broken Clouds  
Wind Chill: 17°   Ceiling: 7500
Heat Index: 17°   Visibility: 10mi
Dew Point: 16°   Wind: 0mph
Humidity: 94%   Direction: NA
Pressure: 29.96"   Gusts: NA
Location:  30.39°N, 84.8°W
Report Text: K2J9 250135Z AUTO 00000KT 10SM FEW046 SCT070 BKN075 17/16 A2996 RMK AO1 P0246
Loading
Personal Weather Stations






























Interactive Weather Map New forecast layout! Learn more

10-Day Weather Forecast

Advertisements
Track Severe Weather on mobile